Time;durP1;ratioP1;P1;durP2;ratioP2;P2;SDS_P1;SDS_P2;PMS_P1;PMS_P2;Temp;Humidity;BMP_temperature;BMP_pressure;BME280_temperature;BME280_humidity;BME280_pressure;Samples;Min_cycle;Max_cycle;Signal;HPM_P1;HPM_P2
2021/04/05 00:00:41;;;;;;;0.80;0.70;;;4.10;99.90;;;4.30;100.00;59830.75;4976972;28;20187;-66
2021/04/05 00:03:10;;;;;;;0.80;0.65;;;4.10;99.90;;;4.26;100.00;58201.25;4976355;28;20196;-66
2021/04/05 00:05:38;;;;;;;0.80;0.75;;;4.00;99.90;;;4.28;100.00;57553.94;4977494;28;20189;-67
2021/04/05 00:08:06;;;;;;;1.98;1.50;;;4.00;99.90;;;4.36;100.00;56586.84;4977202;28;20188;-67
2021/04/05 00:10:42;;;;;;;0.70;0.60;;;4.10;99.90;;;4.39;100.00;55614.84;4977347;28;20208;-67
2021/04/05 00:13:15;;;;;;;0.80;0.68;;;4.10;99.90;;;4.47;100.00;54648.91;4977078;28;20216;-67
2021/04/05 00:15:42;;;;;;;0.80;0.70;;;4.10;99.90;;;4.47;100.00;52370.91;4977042;28;20181;-66
2021/04/05 00:18:12;;;;;;;1.20;1.10;;;4.20;99.90;;;4.43;100.00;50228.16;4976729;28;20224;-70
2021/04/05 00:20:50;;;;;;;0.80;0.80;;;4.10;99.90;;;4.41;100.00;48724.31;4976311;28;20199;-66
2021/04/05 00:23:17;;;;;;;1.23;1.13;;;4.10;99.90;;;4.52;100.00;47409.53;4977340;28;20191;-67
2021/04/05 00:25:44;;;;;;;0.98;0.88;;;4.20;99.90;;;4.54;100.00;45115.56;4976539;28;20188;-67
2021/04/05 00:28:12;;;;;;;0.77;0.70;;;4.20;99.90;;;4.54;100.00;43620.56;4976584;28;20243;-68
2021/04/05 00:30:41;;;;;;;0.70;0.70;;;4.20;99.90;;;4.51;100.00;41838.28;4976989;28;20184;-66
2021/04/05 00:33:11;;;;;;;0.75;0.75;;;4.20;99.90;;;4.48;100.00;41229.44;4976464;28;20676;-67
2021/04/05 00:35:40;;;;;;;0.70;0.60;;;4.20;99.90;;;4.53;100.00;40535.75;4975952;28;20263;-66
2021/04/05 00:38:10;;;;;;;2.20;1.55;;;4.20;99.90;;;4.57;100.00;39285.63;4976807;28;20723;-69
2021/04/05 00:40:40;;;;;;;0.80;0.70;;;4.30;99.90;;;4.55;100.00;37930.94;4977153;28;20188;-67
2021/04/05 00:43:09;;;;;;;0.80;0.70;;;4.20;99.90;;;4.57;100.00;37906.72;4976733;28;20746;-66
2021/04/05 00:45:37;;;;;;;0.80;0.70;;;4.20;99.90;;;4.60;100.00;36919.13;4976771;28;20181;-66
2021/04/05 00:48:06;;;;;;;0.80;0.70;;;4.30;99.90;;;4.65;100.00;36281.38;4971558;28;20223;-66
2021/04/05 00:50:44;;;;;;;0.80;0.70;;;4.30;99.90;;;4.74;100.00;35247.50;4993908;28;20200;-67
2021/04/05 00:53:15;;;;;;;0.70;0.60;;;4.40;99.90;;;4.76;100.00;34299.69;4995815;28;20207;-67
2021/04/05 00:55:44;;;;;;;0.80;0.77;;;4.40;99.90;;;4.74;100.00;33002.22;4976148;28;20305;-67
2021/04/05 00:58:13;;;;;;;0.80;0.70;;;4.40;99.90;;;4.88;100.00;33297.78;4976054;28;20318;-66
2021/04/05 01:00:43;;;;;;;0.70;0.60;;;4.40;99.90;;;4.88;100.00;32127.44;4975076;28;20223;-67
2021/04/05 01:03:13;;;;;;;0.80;0.70;;;4.50;99.90;;;4.90;100.00;31712.84;4975528;28;20203;-67
2021/04/05 01:05:41;;;;;;;0.70;0.60;;;4.50;99.90;;;4.89;100.00;31114.41;4976394;28;20239;-66
2021/04/05 01:08:09;;;;;;;0.70;0.70;;;4.50;99.90;;;4.99;100.00;31160.88;4975748;28;20188;-66
2021/04/05 01:10:37;;;;;;;0.70;0.70;;;4.60;99.90;;;4.94;100.00;30189.63;4976080;28;20192;-67
2021/04/05 01:13:04;;;;;;;0.70;0.60;;;4.50;99.90;;;4.96;100.00;30528.53;4976127;28;20219;-66
2021/04/05 01:15:31;;;;;;;0.70;0.60;;;4.60;99.90;;;5.06;100.00;29389.75;4976033;28;20216;-66
2021/04/05 01:17:59;;;;;;;0.70;0.65;;;4.70;99.90;;;5.23;100.00;28103.50;4975670;28;20657;-66
2021/04/05 01:20:27;;;;;;;0.73;0.60;;;4.70;99.90;;;5.25;100.00;25575.13;4976048;28;20187;-66
2021/04/05 01:22:55;;;;;;;0.70;0.60;;;4.80;99.90;;;5.29;100.00;24061.03;4975916;28;20196;-69
2021/04/05 01:25:22;;;;;;;0.80;0.70;;;4.80;99.90;;;5.50;100.00;22711.19;4974151;28;20185;-67
2021/04/05 01:27:53;;;;;;;0.70;0.68;;;4.80;99.90;;;5.35;100.00;18413.81;4975227;28;20212;-67
2021/04/05 01:30:31;;;;;;;1.10;1.00;;;4.90;99.90;;;5.22;100.00;18718.47;4975516;28;20207;-68
2021/04/05 01:33:08;;;;;;;0.80;0.70;;;4.80;99.90;;;5.18;100.00;20406.06;4970747;28;20192;-68
2021/04/05 01:35:44;;;;;;;0.70;0.60;;;4.70;99.90;;;5.08;100.00;22974.63;4974872;28;20196;-68
2021/04/05 01:38:17;;;;;;;0.70;0.60;;;4.70;99.90;;;5.09;100.00;24804.78;4975800;28;20180;-68
2021/04/05 01:40:47;;;;;;;0.70;0.60;;;4.70;99.90;;;5.04;100.00;25167.13;4975720;28;20206;-67
2021/04/05 01:43:15;;;;;;;0.80;0.70;;;4.60;99.90;;;5.16;100.00;25991.03;4975974;28;20216;-67
2021/04/05 01:45:43;;;;;;;0.70;0.65;;;4.70;99.90;;;5.15;100.00;25338.59;4975842;28;20183;-66
2021/04/05 01:48:13;;;;;;;0.70;0.60;;;4.70;99.90;;;5.08;100.00;25194.22;4975550;28;20184;-66
2021/04/05 01:50:42;;;;;;;0.70;0.60;;;4.70;99.90;;;5.13;100.00;26684.88;4975599;28;20713;-69
2021/04/05 01:53:11;;;;;;;0.70;0.63;;;4.70;99.90;;;5.17;100.00;28314.25;4975245;28;20656;-68
2021/04/05 01:55:39;;;;;;;1.15;1.02;;;4.70;99.90;;;5.21;100.00;29549.31;4974048;28;20652;-68
2021/04/05 01:58:06;;;;;;;0.70;0.60;;;4.70;99.90;;;5.24;100.00;28724.09;4974112;28;20274;-67
2021/04/05 02:00:37;;;;;;;0.70;0.63;;;4.80;99.90;;;5.30;100.00;28203.00;4973885;28;20189;-67
2021/04/05 02:03:06;;;;;;;0.70;0.60;;;4.90;99.90;;;5.27;100.00;29149.25;4974541;28;20247;-66
2021/04/05 02:05:37;;;;;;;0.70;0.60;;;4.80;99.90;;;5.27;100.00;30563.91;4974325;28;20196;-67
2021/04/05 02:08:06;;;;;;;0.70;0.60;;;4.80;99.90;;;5.21;100.00;31153.19;4975313;28;20185;-67
2021/04/05 02:10:34;;;;;;;0.70;0.60;;;4.80;99.90;;;5.17;100.00;33603.44;4975138;28;20184;-67
2021/04/05 02:13:04;;;;;;;0.70;0.70;;;4.80;99.90;;;5.32;100.00;35203.41;4974957;28;20299;-66
2021/04/05 02:15:36;;;;;;;0.70;0.60;;;4.80;99.90;;;5.30;100.00;33391.88;4975428;28;20247;-66
2021/04/05 02:18:04;;;;;;;0.70;0.65;;;4.90;99.90;;;5.47;100.00;33141.72;4973527;28;20219;-67
2021/04/05 02:20:32;;;;;;;0.70;0.60;;;4.90;99.90;;;5.52;100.00;32975.59;4974933;28;20215;-68
2021/04/05 02:22:59;;;;;;;0.70;0.60;;;4.90;99.90;;;5.58;100.00;30783.25;5006306;28;20280;-68
2021/04/05 02:25:29;;;;;;;0.70;0.65;;;5.00;99.90;;;5.59;100.00;30937.50;4975040;28;20184;-69
2021/04/05 02:27:57;;;;;;;0.70;0.60;;;5.00;99.90;;;5.50;100.00;31111.75;4989849;28;20216;-68
2021/04/05 02:30:29;;;;;;;0.70;0.60;;;5.00;99.90;;;5.56;100.00;32955.31;4974116;28;20726;-68
2021/04/05 02:33:01;;;;;;;0.80;0.77;;;5.00;99.90;;;5.60;100.00;33265.56;4974738;28;20188;-68
2021/04/05 02:35:31;;;;;;;0.70;0.60;;;5.00;99.90;;;5.71;100.00;33616.25;4985591;28;20203;-68
2021/04/05 02:38:00;;;;;;;0.70;0.65;;;5.10;99.90;;;5.67;100.00;32936.81;4992927;28;20663;-66
2021/04/05 02:40:28;;;;;;;0.70;0.60;;;5.10;99.90;;;5.85;100.00;33232.69;4994092;28;20187;-69
2021/04/05 02:42:57;;;;;;;0.70;0.60;;;5.10;99.90;;;5.90;100.00;31202.31;4985030;28;20247;-68
2021/04/05 02:45:27;;;;;;;0.70;0.70;;;5.10;99.90;;;5.82;100.00;28394.16;4973917;28;20727;-68
2021/04/05 02:47:58;;;;;;;1.65;1.02;;;5.10;99.90;;;5.57;100.00;31259.38;4972631;28;20609;-68
2021/04/05 02:50:29;;;;;;;0.70;0.60;;;5.10;99.90;;;5.57;100.00;35285.03;4973572;28;20538;-67
2021/04/05 02:53:00;;;;;;;0.70;0.70;;;5.00;99.90;;;5.43;100.00;37429.13;4974877;28;20176;-68
2021/04/05 02:55:28;;;;;;;0.70;0.60;;;5.00;99.90;;;5.38;100.00;40390.00;4975138;28;20708;-66
2021/04/05 02:57:56;;;;;;;0.70;0.60;;;5.00;99.90;;;5.40;100.00;42912.09;4973706;28;20742;-66
2021/04/05 03:00:26;;;;;;;0.70;0.60;;;5.00;99.90;;;5.46;100.00;44360.47;4974396;28;20189;-66
2021/04/05 03:02:55;;;;;;;0.70;0.60;;;4.90;99.90;;;5.51;100.00;44944.75;4973782;28;20646;-68
2021/04/05 03:05:24;;;;;;;0.80;0.70;;;4.90;99.90;;;5.47;100.00;42806.13;4973976;28;20678;-67
2021/04/05 03:07:52;;;;;;;0.70;0.60;;;4.90;99.90;;;5.48;100.00;42589.13;4974392;28;20189;-66
2021/04/05 03:10:22;;;;;;;0.80;0.68;;;5.00;99.90;;;5.37;100.00;43218.66;4974677;28;20505;-67
2021/04/05 03:12:55;;;;;;;0.70;0.60;;;4.90;99.90;;;5.26;100.00;46480.47;4988567;28;20220;-66
2021/04/05 03:15:25;;;;;;;0.70;0.60;;;4.80;99.90;;;5.22;100.00;49699.81;4972059;28;20672;-67
2021/04/05 03:17:57;;;;;;;0.70;0.60;;;4.80;99.90;;;5.21;100.00;52114.44;4975632;28;20190;-67
2021/04/05 03:20:29;;;;;;;0.70;0.60;;;4.80;99.90;;;5.18;100.00;53835.44;4993433;28;20219;-67
2021/04/05 03:22:57;;;;;;;0.70;0.60;;;4.80;99.90;;;5.26;100.00;53723.75;4961416;28;20656;-67
2021/04/05 03:25:24;;;;;;;0.70;0.60;;;4.80;99.90;;;5.26;100.00;54058.53;4977614;28;20176;-68
2021/04/05 03:27:52;;;;;;;0.70;0.65;;;4.70;99.90;;;5.21;100.00;56325.41;4958838;29;20236;-68
2021/04/05 03:30:26;;;;;;;0.70;0.60;;;4.80;99.90;;;5.32;100.00;59977.81;4959352;28;20228;-67
2021/04/05 03:33:06;;;;;;;0.70;0.60;;;5.00;99.90;;;5.35;100.00;60861.56;4973068;28;20184;-67
2021/04/05 03:35:40;;;;;;;0.70;0.70;;;5.00;99.90;;;5.65;100.00;59887.66;4978105;28;20207;-67
2021/04/05 03:38:10;;;;;;;0.80;0.70;;;5.30;99.90;;;5.65;100.00;54334.63;4977700;28;20251;-67
2021/04/05 03:40:40;;;;;;;0.70;0.60;;;5.30;99.90;;;5.68;100.00;52327.09;4975105;28;20197;-67
2021/04/05 03:43:15;;;;;;;1.45;1.35;;;5.30;99.90;;;5.68;100.00;50424.94;4985516;28;20219;-67
2021/04/05 03:45:51;;;;;;;0.70;0.60;;;5.30;99.90;;;5.60;100.00;50433.41;4976994;28;20176;-67
2021/04/05 03:48:27;;;;;;;0.70;0.60;;;5.30;99.90;;;5.74;100.00;53169.13;4976629;28;20184;-68
2021/04/05 03:51:06;;;;;;;1.45;1.35;;;5.30;99.90;;;5.66;100.00;50720.63;4978200;28;20640;-68
2021/04/05 03:53:40;;;;;;;0.70;0.60;;;5.30;99.90;;;5.74;100.00;53211.84;5009163;28;20203;-69
2021/04/05 03:56:12;;;;;;;6.40;2.25;;;5.40;99.90;;;5.73;100.00;52720.47;4977507;28;20286;-67
2021/04/05 03:58:45;;;;;;;0.70;0.60;;;5.30;99.90;;;5.90;100.00;51043.81;4976361;28;20223;-67
2021/04/05 04:01:18;;;;;;;0.80;0.75;;;5.50;99.90;;;6.18;100.00;47853.53;4976619;28;20199;-69
2021/04/05 04:06:22;;;;;;;0.70;0.60;;;5.90;99.90;;;6.63;100.00;31856.19;4977300;28;20184;-67
2021/04/05 04:08:51;;;;;;;0.70;0.60;;;6.00;99.90;;;6.65;100.00;23885.88;4977539;28;20626;-67
2021/04/05 04:11:24;;;;;;;0.70;0.70;;;6.00;99.90;;;6.67;100.00;18486.97;4977506;28;20200;-66
2021/04/05 04:13:53;;;;;;;0.70;0.60;;;6.00;99.90;;;6.82;100.00;13693.88;4977242;28;20208;-67
2021/04/05 04:16:21;;;;;;;0.70;0.60;;;6.20;99.90;;;7.08;100.00;8206.78;4975366;28;20188;-67
2021/04/05 04:18:48;;;;;;;0.70;0.60;;;6.30;99.90;;;6.98;100.00;5869.25;4977095;28;20215;-67
2021/04/05 04:21:17;;;;;;;0.70;0.60;;;6.30;99.90;;;7.10;100.00;4894.59;4977314;28;20184;-66
2021/04/05 04:23:45;;;;;;;0.70;0.60;;;6.30;99.90;;;7.06;100.00;6460.63;4976937;28;20208;-67
2021/04/05 04:26:12;;;;;;;0.70;0.60;;;6.40;99.90;;;7.27;100.00;9173.28;4977099;28;20192;-67
2021/04/05 04:28:43;;;;;;;0.70;0.60;;;6.40;99.90;;;7.13;100.00;8089.69;4976463;28;20212;-67
2021/04/05 04:31:11;;;;;;;0.70;0.60;;;6.40;99.90;;;7.25;100.00;10369.75;4976815;28;20668;-68
2021/04/05 04:33:39;;;;;;;0.70;0.50;;;6.40;99.90;;;7.39;100.00;9897.56;4976870;28;20717;-68
2021/04/05 04:36:07;;;;;;;2.85;1.67;;;6.50;99.90;;;7.44;100.00;10354.00;4977265;28;20215;-67
2021/04/05 04:38:35;;;;;;;1.00;0.90;;;6.50;99.90;;;7.29;100.00;7273.44;4975027;28;20189;-67
2021/04/05 04:41:03;;;;;;;0.70;0.60;;;6.60;99.90;;;7.42;100.00;12638.66;4974464;28;20204;-67
2021/04/05 04:43:30;;;;;;;0.70;0.60;;;6.60;99.90;;;7.35;100.00;16079.41;4957789;29;20725;-67
2021/04/05 04:45:56;;;;;;;0.70;0.65;;;6.60;99.90;;;7.36;100.00;22175.41;4968845;28;20665;-68
2021/04/05 04:48:23;;;;;;;0.70;0.60;;;6.50;99.90;;;7.47;100.00;25863.41;4975681;28;20185;-69
2021/04/05 04:50:51;;;;;;;2.35;1.40;;;6.50;99.90;;;7.50;100.00;26825.59;4976863;28;20546;-68
2021/04/05 04:53:18;;;;;;;0.80;0.80;;;6.60;99.90;;;7.43;100.00;32320.31;4976577;28;20185;-66
2021/04/05 04:55:45;;;;;;;0.70;0.60;;;6.60;99.90;;;7.44;100.00;34030.75;4976253;28;20215;-67
2021/04/05 04:58:14;;;;;;;0.70;0.60;;;6.60;99.90;;;7.34;100.00;40922.44;4975138;28;20707;-67
2021/04/05 05:00:41;;;;;;;0.80;0.80;;;6.50;99.90;;;7.29;100.00;50216.19;4974586;28;20205;-66
2021/04/05 05:03:08;;;;;;;0.73;0.70;;;6.50;99.90;;;7.41;100.00;53951.03;4975806;28;20435;-67
2021/04/05 05:05:37;;;;;;;0.70;0.60;;;6.50;99.90;;;7.39;100.00;57647.00;4976783;28;20182;-67
2021/04/05 05:08:06;;;;;;;0.70;0.60;;;6.50;99.90;;;7.50;100.00;59408.72;4976470;28;20192;-67
2021/04/05 05:10:34;;;;;;;0.73;0.65;;;6.50;99.90;;;7.51;100.00;58654.13;4976374;28;20182;-67
2021/04/05 05:13:02;;;;;;;0.70;0.60;;;6.60;99.90;;;7.42;100.00;58728.97;4975241;28;20215;-67
2021/04/05 05:15:30;;;;;;;0.70;0.60;;;6.60;99.90;;;7.46;100.00;62753.03;4976215;28;20205;-67
2021/04/05 05:17:58;;;;;;;0.70;0.60;;;6.50;99.90;;;7.33;100.00;58294.00;4975604;28;20281;-66
2021/04/05 05:20:26;;;;;;;0.75;0.60;;;6.50;99.90;;;7.44;100.00;64450.56;4975710;28;20200;-67
2021/04/05 05:22:59;;;;;;;0.70;0.60;;;6.50;99.90;;;7.43;100.00;61796.72;4976325;28;20177;-67
2021/04/05 05:25:30;;;;;;;0.70;0.60;;;6.50;99.90;;;7.55;100.00;61321.28;4974685;28;20667;-67
2021/04/05 05:28:02;;;;;;;0.70;0.60;;;6.50;99.90;;;7.29;100.00;59721.50;4978002;28;20224;-66
2021/04/05 05:30:29;;;;;;;0.70;0.60;;;6.50;99.90;;;7.53;100.00;67382.16;4975182;28;20195;-66
2021/04/05 05:33:00;;;;;;;2.00;1.00;;;6.50;99.90;;;7.54;100.00;70834.94;4975199;28;20440;-67
2021/04/05 05:35:27;;;;;;;0.70;0.60;;;6.50;99.90;;;7.44;100.00;75882.47;4975931;28;20468;-66
2021/04/05 05:37:59;;;;;;;1.80;0.88;;;6.60;99.90;;;7.46;100.00;82459.22;4976261;28;20461;-66
2021/04/05 05:40:29;;;;;;;0.70;0.60;;;6.60;99.90;;;7.42;100.00;88379.13;4973636;28;20192;-66
2021/04/05 05:43:19;;;;;;;1.40;1.30;;;6.60;99.90;;;7.42;100.00;89698.28;4973984;28;20245;-67
2021/04/05 05:46:04;;;;;;;0.70;0.60;;;6.60;99.90;;;7.43;100.00;97619.91;4975869;28;20433;-66
2021/04/05 05:48:51;;;;;;;0.70;0.60;;;6.60;99.90;;;7.14;100.00;100545.97;4975139;28;20196;-67
2021/04/05 05:51:33;;;;;;;0.70;0.60;;;6.60;99.90;;;7.37;100.00;105216.75;4975564;28;20187;-67
2021/04/05 05:54:12;;;;;;;0.70;0.60;;;6.50;99.90;;;7.45;100.00;103907.03;4975405;28;20241;-67
2021/04/05 05:56:48;;;;;;;0.70;0.60;;;6.60;99.90;;;7.61;100.00;98642.16;4975156;28;20227;-69
2021/04/05 05:59:25;;;;;;;0.70;0.60;;;6.60;99.90;;;7.44;100.00;95310.28;4973798;28;20196;-66
2021/04/05 06:02:11;;;;;;;0.70;0.70;;;6.60;99.90;;;7.37;100.00;95628.03;4975250;28;20957;-67
2021/04/05 06:05:12;;;;;;;0.70;0.60;;;6.60;99.90;;;7.38;100.00;98272.25;4972860;28;20231;-67
2021/04/05 06:07:52;;;;;;;0.70;0.60;;;6.50;99.90;;;7.46;100.00;96303.53;4974073;28;20713;-67
2021/04/05 06:10:44;;;;;;;0.70;0.60;;;6.60;99.90;;;7.19;100.00;97580.84;4975033;28;20204;-65
2021/04/05 06:13:25;;;;;;;0.80;0.80;;;6.50;99.90;;;7.16;100.00;98897.06;4955804;28;20651;-68
2021/04/05 06:16:11;;;;;;;0.70;0.60;;;6.50;99.90;;;7.28;100.00;100238.06;4962341;28;20207;-69
2021/04/05 06:18:55;;;;;;;0.73;0.65;;;6.50;99.90;;;7.03;100.00;101848.84;4974869;28;20658;-66
2021/04/05 06:21:34;;;;;;;0.70;0.60;;;6.50;99.90;;;7.11;100.00;104509.22;4974905;28;20262;-66
2021/04/05 06:24:08;;;;;;;0.90;0.70;;;6.50;99.90;;;7.22;100.00;106514.59;4974727;28;20188;-66
2021/04/05 06:26:54;;;;;;;0.80;0.80;;;6.50;99.90;;;7.11;100.00;104178.34;4973725;28;20752;-67
2021/04/05 06:29:33;;;;;;;1.10;0.95;;;6.40;99.90;;;7.11;100.00;106164.09;4973124;28;20446;-66
2021/04/05 06:32:22;;;;;;;0.70;0.60;;;6.40;99.90;;;7.15;100.00;107164.84;4974105;28;20181;-66
2021/04/05 06:36:00;;;;;;;0.70;0.60;;;6.40;99.90;;;7.15;100.00;106171.47;4977989;28;20211;-66
2021/04/05 06:38:33;;;;;;;0.70;0.70;;;6.40;99.90;;;6.98;100.00;106140.13;4954084;28;20263;-66
2021/04/05 06:41:19;;;;;;;0.70;0.60;;;6.40;99.90;;;7.10;100.00;107817.88;4971837;28;20192;-66
2021/04/05 06:44:11;;;;;;;0.80;0.80;;;6.40;99.90;;;7.21;100.00;109162.84;4974984;28;20223;-66
2021/04/05 06:47:22;;;;;;;0.80;0.70;;;6.30;99.90;;;7.25;100.00;108840.00;4974303;28;20192;-67
2021/04/05 06:50:06;;;;;;;1.08;1.00;;;6.30;99.90;;;7.03;100.00;107142.50;4971201;28;20209;-66
2021/04/05 06:53:20;;;;;;;0.70;0.60;;;6.30;99.90;;;7.10;100.00;108811.63;4975263;28;20633;-67
2021/04/05 06:55:49;;;;;;;5.82;1.60;;;6.20;99.90;;;7.05;100.00;109795.22;4973822;28;20196;-66
2021/04/05 06:58:55;;;;;;;0.70;0.50;;;6.10;99.90;;;6.81;100.00;108756.88;4972321;28;20637;-66
2021/04/05 07:01:49;;;;;;;0.80;0.80;;;6.10;99.90;;;6.61;100.00;106735.38;4972982;28;20217;-66
2021/04/05 07:04:38;;;;;;;0.70;0.70;;;6.00;99.90;;;6.56;100.00;104740.91;4974175;28;20189;-66
2021/04/05 07:07:18;;;;;;;0.70;0.60;;;6.00;99.90;;;6.75;100.00;104444.78;4973234;28;20569;-67
2021/04/05 07:09:51;;;;;;;0.70;0.50;;;6.00;99.90;;;6.64;100.00;104094.19;4974392;28;20183;-67
2021/04/05 07:12:48;;;;;;;1.98;1.27;;;6.00;99.90;;;6.68;100.00;102779.16;4973360;28;20244;-67
2021/04/05 07:15:27;;;;;;;0.70;0.60;;;5.90;99.90;;;6.59;100.00;100781.81;4972968;28;20219;-67
2021/04/05 07:18:10;;;;;;;0.80;0.70;;;5.90;99.90;;;6.76;100.00;100811.59;4972826;28;20197;-66
2021/04/05 07:20:56;;;;;;;0.70;0.60;;;5.90;99.90;;;6.65;100.00;98811.06;4973704;28;20180;-67
2021/04/05 07:23:43;;;;;;;4.40;2.08;;;6.00;99.90;;;6.67;100.00;98484.41;4974285;28;20207;-67
2021/04/05 07:26:20;;;;;;;2.85;2.05;;;6.00;99.90;;;6.73;100.00;98494.69;4973561;28;20252;-66
2021/04/05 07:29:00;;;;;;;1.58;1.48;;;6.10;99.90;;;6.77;100.00;98831.72;4971976;28;20196;-67
2021/04/05 07:31:38;;;;;;;0.70;0.60;;;6.10;99.90;;;6.88;100.00;99839.75;4973712;28;20196;-66
2021/04/05 07:34:27;;;;;;;1.43;1.33;;;6.10;99.90;;;6.86;100.00;99837.16;4971148;28;20199;-67
2021/04/05 07:37:16;;;;;;;0.70;0.60;;;6.20;99.90;;;6.88;100.00;99839.75;4971694;28;20451;-67
2021/04/05 07:39:49;;;;;;;0.70;0.60;;;6.30;99.90;;;6.99;100.00;101512.09;4973285;28;20216;-66
2021/04/05 07:42:33;;;;;;;0.70;0.60;;;6.30;99.90;;;7.23;100.00;103538.25;4973003;28;20227;-67
2021/04/05 07:45:08;;;;;;;0.70;0.60;;;6.40;99.90;;;7.06;100.00;104168.38;4973775;28;20915;-67
2021/04/05 07:47:43;;;;;;;2.72;2.63;;;6.50;99.90;;;7.33;100.00;105541.47;4973072;28;20698;-67
2021/04/05 07:50:22;;;;;;;3.10;2.35;;;6.50;99.90;;;7.38;100.00;106874.50;4972894;28;20274;-67
2021/04/05 07:52:58;;;;;;;0.70;0.60;;;6.60;99.90;;;7.40;100.00;107210.44;4974056;28;20188;-67
2021/04/05 07:55:27;;;;;;;0.70;0.60;;;6.60;99.90;;;7.53;100.00;107896.53;4973723;28;20204;-69
2021/04/05 07:58:06;;;;;;;0.80;0.70;;;6.70;99.90;;;7.63;100.00;108578.31;4972306;28;20752;-68
2021/04/05 08:00:44;;;;;;;0.70;0.60;;;6.70;99.90;;;7.38;100.00;107537.09;4972651;28;20510;-67
2021/04/05 08:03:27;;;;;;;0.70;0.60;;;6.80;99.90;;;7.79;100.00;109601.66;4973589;28;20518;-68
2021/04/05 08:06:00;;;;;;;0.70;0.70;;;6.90;99.90;;;7.64;100.00;108580.19;4977461;28;20468;-68
2021/04/05 08:08:38;;;;;;;0.70;0.50;;;7.00;99.90;;;7.73;100.00;108928.81;4976716;28;20186;-69
2021/04/05 08:11:21;;;;;;;0.70;0.60;;;7.00;99.90;;;7.72;100.00;108925.97;4975281;28;20445;-69
2021/04/05 08:14:05;;;;;;;1.45;1.23;;;7.00;99.90;;;8.02;100.00;109313.53;4975072;28;20432;-68
2021/04/05 08:16:43;;;;;;;0.70;0.60;;;7.10;99.90;;;7.83;100.00;107287.69;4976237;28;20203;-68
2021/04/05 08:19:23;;;;;;;0.70;0.60;;;7.10;99.90;;;7.69;100.00;106599.69;4981990;28;20209;-68
2021/04/05 08:22:01;;;;;;;0.70;0.60;;;7.00;99.90;;;7.66;100.00;106926.47;4991889;28;20204;-69
2021/04/05 08:24:39;;;;;;;0.70;0.60;;;7.00;99.90;;;7.61;100.00;107248.59;4985179;28;20481;-68
2021/04/05 08:27:24;;;;;;;0.70;0.60;;;7.00;99.90;;;7.59;100.00;106913.50;4977279;28;20208;-68
2021/04/05 08:30:01;;;;;;;0.70;0.60;;;7.00;99.90;;;7.60;100.00;107246.72;4973692;28;20225;-68
2021/04/05 08:32:42;;;;;;;0.70;0.60;;;6.90;99.90;;;7.65;100.00;107586.56;4983180;28;20194;-69
2021/04/05 08:35:31;;;;;;;1.60;1.45;;;6.80;99.90;;;6.96;100.00;104812.81;4981315;28;20204;-69
2021/04/05 08:38:10;;;;;;;1.23;1.13;;;6.30;99.90;;;6.53;100.00;101762.13;4977046;28;20584;-69
2021/04/05 08:40:45;;;;;;;0.70;0.60;;;5.60;99.90;;;6.27;100.00;99077.41;4975547;28;20192;-69
2021/04/05 08:43:26;;;;;;;0.70;0.60;;;5.40;99.90;;;6.05;100.00;97061.16;5005678;28;20699;-70
2021/04/05 08:46:07;;;;;;;0.70;0.60;;;5.30;99.90;;;6.00;100.00;96393.53;4971517;28;20192;-68
2021/04/05 08:48:37;;;;;;;1.25;1.15;;;5.20;99.90;;;5.91;100.00;95390.94;4974236;28;20191;-68
2021/04/05 08:51:11;;;;;;;0.70;0.60;;;5.10;99.90;;;5.89;100.00;94728.06;4975322;28;20192;-69
2021/04/05 08:53:47;;;;;;;0.70;0.60;;;5.10;99.90;;;5.91;100.00;94402.88;4976294;28;20184;-69
2021/04/05 08:56:17;;;;;;;0.70;0.63;;;5.00;99.90;;;5.82;100.00;93730.47;4976337;28;20223;-69
2021/04/05 08:58:53;;;;;;;0.70;0.60;;;5.00;99.90;;;5.68;100.00;91733.47;4975518;28;20572;-69
2021/04/05 09:01:26;;;;;;;0.70;0.60;;;5.00;99.90;;;5.81;100.00;91754.28;4975124;28;20601;-68
2021/04/05 09:03:54;;;;;;;0.70;0.60;;;4.90;99.90;;;5.79;100.00;91422.13;4971575;28;20281;-69
2021/04/05 09:06:32;;;;;;;0.70;0.60;;;4.90;99.90;;;5.72;100.00;90753.19;4975411;28;20220;-69
2021/04/05 09:09:03;;;;;;;0.70;0.60;;;4.80;99.90;;;5.75;100.00;89442.72;4974707;28;20645;-69
2021/04/05 09:11:35;;;;;;;0.70;0.60;;;4.80;99.90;;;5.68;100.00;88445.81;4973922;28;20193;-69
2021/04/05 09:14:05;;;;;;;0.70;0.60;;;4.80;99.90;;;5.70;100.00;88448.09;4972455;28;20200;-69
2021/04/05 09:17:10;;;;;;;0.70;0.60;;;4.80;99.90;;;5.67;100.00;88115.69;4986216;28;20300;-69
2021/04/05 09:20:11;;;;;;;0.70;0.60;;;4.80;99.90;;;5.68;100.00;86802.38;4972482;28;20238;-70
2021/04/05 09:23:14;;;;;;;0.70;0.60;;;4.80;99.90;;;5.76;100.00;87472.31;4974440;28;20199;-70
2021/04/05 09:26:14;;;;;;;0.70;0.60;;;4.80;99.90;;;5.77;100.00;87473.84;4973631;28;20176;-70
2021/04/05 09:29:03;;;;;;;0.70;0.60;;;4.90;99.90;;;5.82;100.00;86824.38;4972752;28;20216;-69
2021/04/05 09:32:28;;;;;;;0.70;0.60;;;4.90;99.90;;;5.78;100.00;84847.81;4974101;28;20196;-69
2021/04/05 09:35:42;;;;;;;0.70;0.63;;;5.00;99.90;;;6.01;100.00;84880.47;4974917;28;20279;-69
2021/04/05 09:38:45;;;;;;;0.70;0.70;;;4.90;99.90;;;6.07;100.00;85546.41;4972965;28;20216;-69
2021/04/05 09:41:35;;;;;;;0.70;0.60;;;5.10;99.90;;;6.06;100.00;85544.91;4975106;28;20636;-69
2021/04/05 09:44:58;;;;;;;0.70;0.60;;;5.10;99.90;;;5.74;100.00;83528.94;4959777;28;20184;-69
2021/04/05 09:48:16;;;;;;;0.70;0.60;;;4.90;99.90;;;4.60;100.00;77474.38;4976038;28;20198;-69
2021/04/05 09:51:34;;;;;;;0.70;0.60;;;4.00;99.90;;;4.15;100.00;72516.13;4965229;28;20208;-69
2021/04/05 09:54:24;;;;;;;0.70;0.60;;;3.30;99.90;;;4.17;100.00;70236.03;4974602;28;20196;-69
2021/04/05 09:56:57;;;;;;;0.80;0.70;;;3.30;99.90;;;4.35;100.00;69606.03;4972493;28;20649;-68
2021/04/05 09:59:40;;;;;;;0.70;0.60;;;3.40;99.90;;;4.54;100.00;69954.97;4971891;28;20193;-68
2021/04/05 10:02:14;;;;;;;0.70;0.60;;;3.50;99.90;;;4.40;100.00;69284.81;4973613;28;20188;-69
2021/04/05 10:04:44;;;;;;;0.70;0.63;;;3.50;99.90;;;4.28;100.00;68293.38;4975240;28;20192;-70
2021/04/05 10:07:13;;;;;;;0.70;0.60;;;3.50;99.90;;;4.24;100.00;66659.31;4970636;28;20192;-68
2021/04/05 10:09:42;;;;;;;0.90;0.90;;;3.50;99.90;;;4.21;100.00;65352.41;4974527;28;20177;-70
2021/04/05 10:12:11;;;;;;;0.70;0.70;;;3.40;99.90;;;4.11;100.00;64039.94;4975219;28;20306;-69
2021/04/05 10:15:00;;;;;;;0.70;0.60;;;3.30;99.90;;;4.16;100.00;63068.16;4974901;28;20291;-69
2021/04/05 10:17:28;;;;;;;0.73;0.68;;;3.30;99.90;;;4.16;100.00;62418.03;4974129;28;20207;-69
2021/04/05 10:19:58;;;;;;;0.70;0.60;;;3.30;99.90;;;4.02;100.00;62402.53;4974907;28;20208;-69
2021/04/05 10:22:25;;;;;;;0.70;0.60;;;3.20;99.90;;;4.01;100.00;62401.41;4974904;28;20356;-69
2021/04/05 10:24:58;;;;;;;0.80;0.70;;;3.20;99.90;;;4.05;100.00;62731.69;4975002;28;20217;-68
2021/04/05 10:27:27;;;;;;;0.70;0.60;;;3.10;99.90;;;3.97;100.00;61747.16;4973120;28;20227;-69
2021/04/05 10:29:56;;;;;;;0.70;0.60;;;3.20;99.90;;;3.94;100.00;61093.09;4974823;28;20685;-68
2021/04/05 10:32:26;;;;;;;0.80;0.70;;;3.20;99.90;;;4.07;100.00;60456.97;4973079;28;20200;-68
2021/04/05 10:34:58;;;;;;;0.70;0.60;;;3.20;99.90;;;4.27;100.00;60152.72;4972681;28;20656;-68
2021/04/05 10:37:30;;;;;;;0.70;0.60;;;3.40;99.90;;;4.33;100.00;59509.31;4974171;28;20592;-69
2021/04/05 10:39:59;;;;;;;1.35;1.25;;;3.40;99.90;;;4.48;100.00;58223.50;4973952;28;20211;-69
2021/04/05 10:42:33;;;;;;;0.70;0.70;;;3.50;99.90;;;4.59;100.00;57584.66;4973718;28;20692;-69
2021/04/05 10:45:07;;;;;;;2.65;1.13;;;3.70;99.90;;;4.61;100.00;56611.56;4972381;28;20195;-69
2021/04/05 10:47:46;;;;;;;0.70;0.60;;;3.70;99.90;;;4.69;100.00;55644.59;4966842;28;20563;-68
2021/04/05 10:50:15;;;;;;;0.70;0.60;;;3.70;99.90;;;4.74;100.00;53375.44;4974409;28;20289;-69
2021/04/05 10:52:45;;;;;;;0.70;0.70;;;3.70;99.90;;;4.92;100.00;49632.50;4974466;28;20264;-68
2021/04/05 10:55:19;;;;;;;0.70;0.60;;;3.70;99.90;;;5.17;100.00;47152.47;4971820;28;20223;-68
2021/04/05 10:57:54;;;;;;;0.70;0.60;;;4.00;99.90;;;5.57;100.00;45796.19;4971599;28;20228;-68
2021/04/05 11:00:26;;;;;;;0.70;0.60;;;4.20;99.90;;;5.65;100.00;39118.84;4989121;28;20699;-68
2021/04/05 11:03:01;;;;;;;0.80;0.73;;;4.30;99.90;;;5.57;100.00;34504.28;4974216;28;20190;-68